createdAt,value
2023-03-11T00:00:55.286Z,98604.44
2023-03-11T00:03:24.980Z,98622.00
2023-03-11T00:05:53.632Z,98621.84
2023-03-11T00:08:23.271Z,98642.97
2023-03-11T00:10:55.285Z,98644.69
2023-03-11T00:13:22.496Z,98645.00
2023-03-11T00:15:51.569Z,98653.16
2023-03-11T00:18:18.617Z,98665.13
2023-03-11T00:20:46.937Z,98664.97
2023-03-11T00:23:15.181Z,98661.81
2023-03-11T00:25:43.776Z,98666.88
2023-03-11T00:28:13.509Z,98684.84
2023-03-11T00:30:42.700Z,98687.00
2023-03-11T00:33:11.677Z,98694.41
2023-03-11T00:35:41.176Z,98686.94
2023-03-11T00:38:11.828Z,98705.03
2023-03-11T00:40:39.075Z,98710.63
2023-03-11T00:43:05.628Z,98706.66
2023-03-11T00:45:32.656Z,98709.75
2023-03-11T00:47:59.507Z,98720.94
2023-03-11T00:50:32.577Z,98723.41
2023-03-11T00:52:59.945Z,98732.25
2023-03-11T00:55:29.115Z,98740.38
2023-03-11T00:57:58.214Z,98754.50
2023-03-11T01:00:27.842Z,98756.88
2023-03-11T01:02:55.862Z,98765.06
2023-03-11T01:05:26.259Z,98756.94
2023-03-11T01:07:52.904Z,98778.63
2023-03-11T01:10:20.145Z,98772.84
2023-03-11T01:12:46.738Z,98785.47
2023-03-11T01:15:26.207Z,98799.84
2023-03-11T01:17:52.754Z,98799.88
2023-03-11T01:20:19.396Z,98832.25
2023-03-11T01:22:46.020Z,98806.84
2023-03-11T01:25:18.269Z,98850.06
2023-03-11T01:27:45.006Z,98844.13
2023-03-11T01:30:15.239Z,98849.81
2023-03-11T01:32:42.038Z,98857.50
2023-03-11T01:35:11.594Z,98865.09
2023-03-11T01:37:38.187Z,98874.66
2023-03-11T01:40:06.179Z,98871.09
2023-03-11T01:42:32.780Z,98884.66
2023-03-11T01:44:59.421Z,98901.56
2023-03-11T01:47:37.736Z,98918.00
2023-03-11T01:50:07.784Z,98907.75
2023-03-11T01:52:34.433Z,98922.16
2023-03-11T01:55:01.285Z,98937.88
2023-03-11T01:57:27.960Z,98937.22
2023-03-11T01:59:57.861Z,98951.66
2023-03-11T02:02:42.447Z,98956.28
2023-03-11T02:05:09.641Z,98970.69
2023-03-11T02:07:38.677Z,98977.72
2023-03-11T02:10:07.356Z,99003.41
2023-03-11T02:12:35.605Z,99002.09
2023-03-11T02:15:03.526Z,99007.03
2023-03-11T02:17:31.815Z,99020.34
2023-03-11T02:20:17.041Z,99038.31
2023-03-11T02:22:44.798Z,99044.00
2023-03-11T02:25:18.910Z,99052.34
2023-03-11T02:27:47.722Z,99057.88
2023-03-11T02:30:15.757Z,99073.53
2023-03-11T02:32:44.666Z,99082.19
2023-03-11T02:35:11.310Z,99099.16
2023-03-11T02:37:44.160Z,99109.25
2023-03-11T02:40:38.748Z,99110.91
2023-03-11T02:43:11.278Z,99119.38
2023-03-11T02:45:40.137Z,99129.50
2023-03-11T02:48:09.471Z,99138.06
2023-03-11T02:50:37.332Z,99143.59
2023-03-11T02:53:05.885Z,99157.28
2023-03-11T02:55:32.633Z,99164.94
2023-03-11T02:58:00.071Z,99181.25
2023-03-11T03:00:27.106Z,99178.31
2023-03-11T03:03:00.515Z,99189.47
2023-03-11T03:05:28.306Z,99205.56
2023-03-11T03:07:56.648Z,99213.84
2023-03-11T03:10:24.928Z,99227.75
2023-03-11T03:12:51.515Z,99235.31
2023-03-11T03:15:18.059Z,99247.72
2023-03-11T03:17:46.239Z,99246.06
2023-03-11T03:20:14.253Z,99262.19
2023-03-11T03:22:45.573Z,99279.53
2023-03-11T03:25:15.223Z,99271.66
2023-03-11T03:27:41.851Z,99283.34
2023-03-11T03:30:09.671Z,99294.84
2023-03-11T03:32:36.771Z,99284.16
2023-03-11T03:35:05.090Z,99316.06
2023-03-11T03:37:49.882Z,99321.88
2023-03-11T03:40:16.664Z,99331.25
2023-03-11T03:42:43.486Z,99345.91
2023-03-11T03:45:10.619Z,99342.38
2023-03-11T03:47:37.298Z,99345.56
2023-03-11T03:50:08.459Z,99362.50
2023-03-11T03:52:36.386Z,99383.41
2023-03-11T03:55:03.921Z,99387.94
2023-03-11T03:57:30.518Z,99392.72
2023-03-11T03:59:57.154Z,99396.50
2023-03-11T04:02:23.924Z,99392.50
2023-03-11T04:04:51.706Z,99411.22
2023-03-11T04:07:18.334Z,99417.00
2023-03-11T04:09:44.919Z,99424.31
2023-03-11T04:12:15.423Z,99434.78
2023-03-11T04:14:42.389Z,99433.19
2023-03-11T04:17:11.642Z,99451.16
2023-03-11T04:19:38.304Z,99445.25
2023-03-11T04:22:05.424Z,99443.63
2023-03-11T04:24:32.395Z,99464.00
2023-03-11T04:26:59.139Z,99465.50
2023-03-11T04:29:25.862Z,99473.53
2023-03-11T04:31:53.717Z,99485.53
2023-03-11T04:34:20.426Z,99488.19
2023-03-11T04:36:47.019Z,99483.66
2023-03-11T04:39:15.914Z,99512.00
2023-03-11T04:41:44.104Z,99522.44
2023-03-11T04:44:14.905Z,99502.63
2023-03-11T04:46:41.691Z,99533.91
2023-03-11T04:49:10.426Z,99531.09
2023-03-11T04:51:37.577Z,99529.75
2023-03-11T04:54:05.202Z,99539.28
2023-03-11T04:56:31.850Z,99554.63
2023-03-11T04:58:58.759Z,99559.19
2023-03-11T05:01:26.376Z,99569.34
2023-03-11T05:03:53.082Z,99576.44
2023-03-11T05:06:19.799Z,99589.78
2023-03-11T05:08:47.051Z,99589.69
2023-03-11T05:11:13.751Z,99602.75
2023-03-11T05:13:42.233Z,99620.50
2023-03-11T05:16:10.078Z,99607.44
2023-03-11T05:18:36.915Z,99615.97
2023-03-11T05:21:03.729Z,99626.84
2023-03-11T05:23:32.478Z,99628.28
2023-03-11T05:25:59.871Z,99644.13
2023-03-11T05:28:27.036Z,99649.13
2023-03-11T05:30:54.894Z,99645.78
2023-03-11T05:33:22.012Z,99653.22
2023-03-11T05:35:51.979Z,99665.44
2023-03-11T05:38:19.630Z,99670.38
2023-03-11T05:40:46.526Z,99680.56
2023-03-11T05:43:13.264Z,99678.06
2023-03-11T05:45:42.689Z,99687.75
2023-03-11T05:48:10.306Z,99689.78
2023-03-11T05:50:38.109Z,99695.34
2023-03-11T05:53:06.218Z,99692.16
2023-03-11T05:55:32.802Z,99704.59
2023-03-11T05:58:00.137Z,99709.75
2023-03-11T06:00:29.383Z,99715.41
2023-03-11T06:03:00.900Z,99721.09
2023-03-11T06:05:27.872Z,99719.91
2023-03-11T06:07:55.923Z,99724.28
2023-03-11T06:10:23.215Z,99732.13
2023-03-11T06:12:49.804Z,99736.91
2023-03-11T06:15:22.174Z,99731.38
2023-03-11T06:17:49.077Z,99750.16
2023-03-11T06:20:15.659Z,99752.16
2023-03-11T06:22:42.788Z,99760.16
2023-03-11T06:25:10.004Z,99757.75
2023-03-11T06:27:38.440Z,99770.66
2023-03-11T06:30:07.029Z,99776.38
2023-03-11T06:32:40.014Z,99782.97
2023-03-11T06:35:08.209Z,99775.84
2023-03-11T06:37:36.383Z,99792.38
2023-03-11T06:40:05.409Z,99806.13
2023-03-11T06:42:32.051Z,99814.00
2023-03-11T06:44:58.765Z,99818.06
2023-03-11T06:47:25.737Z,99844.66
2023-03-11T06:49:52.651Z,99835.59
2023-03-11T06:52:19.546Z,99839.16
2023-03-11T06:54:46.676Z,99841.91
2023-03-11T06:57:16.829Z,99859.44
2023-03-11T06:59:45.191Z,99861.03
2023-03-11T07:02:15.046Z,99875.84
2023-03-11T07:04:42.825Z,99873.00
2023-03-11T07:07:09.394Z,99875.50
2023-03-11T07:09:36.110Z,99880.72
2023-03-11T07:12:06.618Z,99878.50
2023-03-11T07:14:35.832Z,99886.03
2023-03-11T07:17:03.578Z,99888.75
2023-03-11T07:19:41.914Z,99903.94
2023-03-11T07:22:08.459Z,99904.06
2023-03-11T07:24:35.085Z,99916.91
2023-03-11T07:27:01.843Z,99921.84
2023-03-11T07:29:28.450Z,99932.16
2023-03-11T07:31:56.161Z,99945.13
2023-03-11T07:34:22.777Z,99948.19
2023-03-11T07:36:49.418Z,99942.78
2023-03-11T07:39:17.851Z,99953.31
2023-03-11T07:41:44.873Z,99966.09
2023-03-11T07:44:15.947Z,99973.91
2023-03-11T07:46:42.890Z,99973.13
2023-03-11T07:49:09.590Z,99974.59
2023-03-11T07:51:37.146Z,99981.84
2023-03-11T07:54:04.418Z,99991.34
2023-03-11T07:56:33.935Z,100002.56
2023-03-11T07:59:01.816Z,100002.41
2023-03-11T08:01:36.649Z,99998.78
2023-03-11T08:04:05.147Z,100007.75
2023-03-11T08:06:32.953Z,100015.47
2023-03-11T08:09:00.581Z,100016.19
2023-03-11T08:11:27.713Z,100030.47
2023-03-11T08:13:55.403Z,100037.47
2023-03-11T08:16:22.735Z,100039.16
2023-03-11T08:18:50.362Z,100041.59
2023-03-11T08:21:27.109Z,100042.97
2023-03-11T08:23:57.377Z,100055.81
2023-03-11T08:26:24.044Z,100060.81
2023-03-11T08:28:50.730Z,100072.09
2023-03-11T08:31:22.373Z,100075.31
2023-03-11T08:33:50.325Z,100089.97
2023-03-11T08:36:17.478Z,100096.28
2023-03-11T08:38:44.344Z,100096.09
2023-03-11T08:41:10.909Z,100103.22
2023-03-11T08:43:37.501Z,100102.38
2023-03-11T08:46:06.864Z,100113.09
2023-03-11T08:48:34.496Z,100111.91
2023-03-11T08:51:01.201Z,100116.50
2023-03-11T08:53:27.782Z,100115.56
2023-03-11T08:55:54.565Z,100127.59
2023-03-11T08:58:21.151Z,100123.84
2023-03-11T09:00:48.088Z,100145.53
2023-03-11T09:03:14.655Z,100129.91
2023-03-11T09:05:41.706Z,100138.19
2023-03-11T09:08:08.362Z,100143.22
2023-03-11T09:10:34.975Z,100144.81
2023-03-11T09:13:01.549Z,100142.28
2023-03-11T09:15:28.217Z,100148.84
2023-03-11T09:17:55.847Z,100163.03
2023-03-11T09:20:22.868Z,100175.88
2023-03-11T09:22:49.475Z,100174.81
2023-03-11T09:25:16.108Z,100169.47
2023-03-11T09:27:43.182Z,100180.00
2023-03-11T09:30:10.604Z,100167.97
2023-03-11T09:32:37.547Z,100186.31
2023-03-11T09:35:04.712Z,100186.47
2023-03-11T09:37:31.387Z,100188.41
2023-03-11T09:39:58.031Z,100175.78
2023-03-11T09:42:30.072Z,100198.47
2023-03-11T09:45:15.937Z,100195.03
2023-03-11T09:47:59.018Z,100201.09
2023-03-11T09:50:38.335Z,100204.53
2023-03-11T09:53:33.822Z,100211.78
2023-03-11T09:56:02.804Z,100221.41
2023-03-11T09:58:37.297Z,100230.94
2023-03-11T10:01:14.588Z,100231.59
2023-03-11T10:03:41.374Z,100224.84
2023-03-11T10:06:14.688Z,100232.59
2023-03-11T10:08:53.050Z,100241.91
2023-03-11T10:11:57.299Z,100243.44
2023-03-11T10:14:53.300Z,100246.91
2023-03-11T10:17:45.770Z,100251.22
2023-03-11T10:20:13.126Z,100253.88
2023-03-11T10:23:07.899Z,100261.09
2023-03-11T10:25:53.646Z,100263.56
2023-03-11T10:28:22.883Z,100277.00
2023-03-11T10:30:56.475Z,100278.47
2023-03-11T10:33:46.535Z,100275.94
2023-03-11T10:36:19.520Z,100280.16
2023-03-11T10:38:48.065Z,100283.56
2023-03-11T10:41:43.079Z,100286.03
2023-03-11T10:44:20.214Z,100294.06
2023-03-11T10:46:47.557Z,100288.44
2023-03-11T10:49:15.749Z,100297.41
2023-03-11T10:51:45.818Z,100296.94
2023-03-11T10:54:48.808Z,100302.03
2023-03-11T10:57:30.471Z,100305.69
2023-03-11T10:59:59.174Z,100305.00
2023-03-11T11:02:32.648Z,100304.75
2023-03-11T11:05:17.653Z,100315.09
2023-03-11T11:08:05.037Z,100318.81
2023-03-11T11:10:32.077Z,100328.16
2023-03-11T11:13:04.045Z,100321.94
2023-03-11T11:15:33.115Z,100328.59
2023-03-11T11:18:21.717Z,100324.59
2023-03-11T11:21:18.036Z,100327.16
2023-03-11T11:23:48.752Z,100330.78
2023-03-11T11:26:19.730Z,100328.22
2023-03-11T11:28:46.540Z,100337.31
2023-03-11T11:31:24.915Z,100328.25
2023-03-11T11:33:53.949Z,100341.50
2023-03-11T11:36:24.350Z,100342.28
2023-03-11T11:38:57.453Z,100331.44
2023-03-11T11:41:26.419Z,100331.91
2023-03-11T11:43:55.680Z,100336.94
2023-03-11T11:46:31.456Z,100330.00
2023-03-11T11:49:25.731Z,100346.25
2023-03-11T11:51:58.082Z,100340.78
2023-03-11T11:54:35.067Z,100336.81
2023-03-11T11:57:10.550Z,100345.69
2023-03-11T11:59:37.145Z,100345.56
2023-03-11T12:02:16.449Z,100342.91
2023-03-11T12:04:54.816Z,100353.38
2023-03-11T12:07:39.860Z,100342.63
2023-03-11T12:10:22.904Z,100350.88
2023-03-11T12:12:53.894Z,100350.50
2023-03-11T12:15:24.768Z,100344.13
2023-03-11T12:17:53.349Z,100346.25
2023-03-11T12:20:44.587Z,100349.28
2023-03-11T12:23:19.436Z,100350.44
2023-03-11T12:26:13.863Z,100354.63
2023-03-11T12:29:02.230Z,100355.25
2023-03-11T12:31:31.606Z,100360.97
2023-03-11T12:34:02.345Z,100363.25
2023-03-11T12:36:34.244Z,100363.63
2023-03-11T12:39:05.693Z,100371.00
2023-03-11T12:41:33.943Z,100375.72
2023-03-11T12:44:02.369Z,100374.03
2023-03-11T12:46:53.876Z,100366.59
2023-03-11T12:49:33.473Z,100365.25
2023-03-11T12:52:09.110Z,100369.19
2023-03-11T12:54:37.384Z,100370.28
2023-03-11T12:57:16.136Z,100371.00
2023-03-11T13:00:09.781Z,100367.94
2023-03-11T13:03:06.142Z,100365.50
2023-03-11T13:05:41.881Z,100369.47
2023-03-11T13:08:28.686Z,100371.81
2023-03-11T13:10:56.510Z,100377.34
2023-03-11T13:13:22.969Z,100380.03
2023-03-11T13:15:50.642Z,100377.97
2023-03-11T13:18:33.504Z,100371.03
2023-03-11T13:21:01.720Z,100367.75
2023-03-11T13:23:31.624Z,100379.31
2023-03-11T13:26:23.206Z,100383.16
2023-03-11T13:29:02.940Z,100387.38
2023-03-11T13:31:54.645Z,100400.81
2023-03-11T13:34:42.826Z,100409.84
2023-03-11T13:37:20.999Z,100415.69
2023-03-11T13:39:55.104Z,100415.13
2023-03-11T13:42:32.350Z,100418.16
2023-03-11T13:44:59.776Z,100425.00
2023-03-11T13:47:27.271Z,100436.91
2023-03-11T13:50:14.709Z,100431.22
2023-03-11T13:52:49.304Z,100443.66
2023-03-11T13:55:25.778Z,100439.78
2023-03-11T13:57:54.875Z,100448.78
2023-03-11T14:00:28.556Z,100440.03
2023-03-11T14:03:01.529Z,100447.75
2023-03-11T14:05:32.644Z,100456.34
2023-03-11T14:08:12.496Z,100450.31
2023-03-11T14:10:59.739Z,100454.00
2023-03-11T14:13:28.942Z,100463.47
2023-03-11T14:16:03.580Z,100458.28
2023-03-11T14:18:36.315Z,100457.19
2023-03-11T14:21:04.814Z,100462.97
2023-03-11T14:23:48.865Z,100453.34
2023-03-11T14:26:18.731Z,100467.59
2023-03-11T14:28:48.606Z,100458.78
2023-03-11T14:31:34.470Z,100463.78
2023-03-11T14:34:07.707Z,100462.91
2023-03-11T14:36:45.628Z,100464.94
2023-03-11T14:39:27.411Z,100461.78
2023-03-11T14:41:58.079Z,100465.41
2023-03-11T14:44:27.304Z,100477.19
2023-03-11T14:46:59.130Z,100478.03
2023-03-11T14:49:25.964Z,100471.59
2023-03-11T14:51:59.146Z,100485.63
2023-03-11T14:54:29.258Z,100482.75
2023-03-11T14:57:03.093Z,100482.75
2023-03-11T14:59:32.417Z,100492.06
2023-03-11T15:02:13.568Z,100485.00
2023-03-11T15:04:44.240Z,100491.13
2023-03-11T15:07:11.061Z,100497.72
2023-03-11T15:09:40.275Z,100499.63
2023-03-11T15:12:07.044Z,100483.44
2023-03-11T15:14:35.455Z,100492.91
2023-03-11T15:17:38.391Z,100488.09
2023-03-11T15:20:33.089Z,100484.84
2023-03-11T15:23:04.519Z,100491.94
2023-03-11T15:25:34.199Z,100481.59
2023-03-11T15:28:19.386Z,100485.91
2023-03-11T15:30:46.067Z,100489.97
2023-03-11T15:33:33.182Z,100496.88
2023-03-11T15:35:59.865Z,100495.06
2023-03-11T15:38:28.521Z,100506.31
2023-03-11T15:41:01.077Z,100502.44
2023-03-11T15:43:43.603Z,100515.56
2023-03-11T15:46:11.195Z,100507.66
2023-03-11T15:48:37.987Z,100508.81
2023-03-11T15:51:04.691Z,100514.16
2023-03-11T15:53:31.405Z,100516.75
2023-03-11T15:56:08.155Z,100518.44
2023-03-11T15:58:37.133Z,100523.84
2023-03-11T16:01:04.152Z,100516.94
2023-03-11T16:03:31.545Z,100524.03
2023-03-11T16:05:58.452Z,100526.59
2023-03-11T16:08:25.174Z,100538.81
2023-03-11T16:10:51.745Z,100537.06
2023-03-11T16:13:18.401Z,100534.53
2023-03-11T16:15:47.014Z,100536.22
2023-03-11T16:18:13.987Z,100543.28
2023-03-11T16:21:02.298Z,100545.88
2023-03-11T16:23:41.643Z,100553.81
2023-03-11T16:26:18.064Z,100557.44
2023-03-11T16:28:44.658Z,100554.78
2023-03-11T16:31:11.247Z,100563.03
2023-03-11T16:33:38.115Z,100565.66
2023-03-11T16:36:05.520Z,100578.81
2023-03-11T16:38:41.725Z,100574.31
2023-03-11T16:41:08.404Z,100585.72
2023-03-11T16:43:35.066Z,100582.25
2023-03-11T16:46:01.681Z,100577.91
2023-03-11T16:48:28.382Z,100576.09
2023-03-11T16:50:54.964Z,100589.25
2023-03-11T16:53:22.056Z,100593.56
2023-03-11T16:55:48.840Z,100596.25
2023-03-11T16:58:15.660Z,100593.66
2023-03-11T17:00:42.463Z,100592.84
2023-03-11T17:03:11.998Z,100586.66
2023-03-11T17:05:38.574Z,100600.66
2023-03-11T17:08:05.482Z,100606.84
2023-03-11T17:10:43.585Z,100606.00
2023-03-11T17:13:14.016Z,100613.00
2023-03-11T17:15:44.331Z,100621.88
2023-03-11T17:18:11.998Z,100628.94
2023-03-11T17:20:40.045Z,100625.47
2023-03-11T17:23:06.749Z,100626.31
2023-03-11T17:25:33.381Z,100621.97
2023-03-11T17:28:00.117Z,100635.16
2023-03-11T17:30:36.509Z,100630.72
2023-03-11T17:33:03.988Z,100636.00
2023-03-11T17:35:30.576Z,100632.50
2023-03-11T17:37:57.251Z,100634.19
2023-03-11T17:40:23.954Z,100637.78
2023-03-11T17:42:50.710Z,100634.31
2023-03-11T17:45:17.284Z,100634.34
2023-03-11T17:47:44.165Z,100636.06
2023-03-11T17:50:11.865Z,100642.19
2023-03-11T17:52:38.480Z,100636.13
2023-03-11T17:55:05.487Z,100647.50
2023-03-11T17:57:44.472Z,100647.50
2023-03-11T18:00:14.426Z,100651.91
2023-03-11T18:02:40.979Z,100658.06
2023-03-11T18:05:09.262Z,100653.66
2023-03-11T18:07:39.059Z,100657.19
2023-03-11T18:10:07.532Z,100656.28
2023-03-11T18:12:34.171Z,100663.34
2023-03-11T18:15:04.314Z,100651.97
2023-03-11T18:17:30.938Z,100664.19
2023-03-11T18:19:59.625Z,100658.97
2023-03-11T18:22:26.863Z,100666.84
2023-03-11T18:24:53.649Z,100670.34
2023-03-11T18:27:20.292Z,100658.94
2023-03-11T18:29:47.016Z,100665.97
2023-03-11T18:32:13.563Z,100674.78
2023-03-11T18:34:40.534Z,100676.50
2023-03-11T18:37:07.414Z,100680.00
2023-03-11T18:39:34.132Z,100673.00
2023-03-11T18:42:00.821Z,100682.66
2023-03-11T18:44:27.941Z,100674.75
2023-03-11T18:46:54.561Z,100677.38
2023-03-11T18:49:21.123Z,100676.53
2023-03-11T18:51:47.706Z,100678.25
2023-03-11T18:54:14.285Z,100680.00
2023-03-11T18:56:44.130Z,100682.66
2023-03-11T18:59:12.199Z,100679.16
2023-03-11T19:01:38.999Z,100685.28
2023-03-11T19:04:06.013Z,100691.44
2023-03-11T19:06:32.792Z,100687.91
2023-03-11T19:08:59.413Z,100694.94
2023-03-11T19:11:26.492Z,100687.06
2023-03-11T19:13:53.172Z,100685.31
2023-03-11T19:16:22.359Z,100681.78
2023-03-11T19:18:49.077Z,100687.94
2023-03-11T19:21:16.628Z,100691.44
2023-03-11T19:23:44.668Z,100691.44
2023-03-11T19:26:11.426Z,100693.19
2023-03-11T19:28:38.043Z,100683.56
2023-03-11T19:31:05.232Z,100682.66
2023-03-11T19:33:32.573Z,100690.53
2023-03-11T19:36:01.673Z,100693.16
2023-03-11T19:38:29.068Z,100692.31
2023-03-11T19:41:11.274Z,100694.94
2023-03-11T19:43:38.154Z,100694.94
2023-03-11T19:46:05.606Z,100701.09
2023-03-11T19:48:32.304Z,100704.56
2023-03-11T19:50:59.173Z,100695.81
2023-03-11T19:53:26.349Z,100703.72
2023-03-11T19:55:55.569Z,100699.34
2023-03-11T19:58:23.910Z,100704.59
2023-03-11T20:00:51.028Z,100703.72
2023-03-11T20:03:19.047Z,100705.47
2023-03-11T20:05:46.664Z,100708.06
2023-03-11T20:08:15.363Z,100697.56
2023-03-11T20:10:45.542Z,100698.47
2023-03-11T20:13:13.677Z,100698.44
2023-03-11T20:15:40.400Z,100690.56
2023-03-11T20:18:07.260Z,100702.84
2023-03-11T20:20:34.562Z,100703.72
2023-03-11T20:23:02.298Z,100692.31
2023-03-11T20:25:32.387Z,100703.72
2023-03-11T20:27:59.941Z,100700.19
2023-03-11T20:30:27.082Z,100705.44
2023-03-11T20:32:54.406Z,100708.09
2023-03-11T20:35:21.798Z,100706.31
2023-03-11T20:37:48.483Z,100708.94
2023-03-11T20:40:16.430Z,100712.44
2023-03-11T20:42:46.876Z,100705.44
2023-03-11T20:45:16.322Z,100707.19
2023-03-11T20:47:44.476Z,100706.31
2023-03-11T20:50:14.740Z,100714.19
2023-03-11T20:52:41.478Z,100712.44
2023-03-11T20:55:10.211Z,100719.47
2023-03-11T20:57:37.666Z,100709.75
2023-03-11T21:00:11.514Z,100710.66
2023-03-11T21:02:43.085Z,100712.44
2023-03-11T21:05:11.174Z,100710.72
2023-03-11T21:07:38.103Z,100706.31
2023-03-11T21:10:06.864Z,100708.06
2023-03-11T21:12:33.526Z,100704.59
2023-03-11T21:15:00.217Z,100707.22
2023-03-11T21:17:26.976Z,100701.06
2023-03-11T21:19:53.549Z,100705.44
2023-03-11T21:22:20.218Z,100708.94
2023-03-11T21:24:54.163Z,100704.53
2023-03-11T21:27:26.305Z,100704.56
2023-03-11T21:29:54.085Z,100704.47
2023-03-11T21:32:21.300Z,100712.41
2023-03-11T21:34:48.142Z,100710.72
2023-03-11T21:37:14.878Z,100708.91
2023-03-11T21:39:41.672Z,100705.41
2023-03-11T21:42:08.388Z,100703.66
2023-03-11T21:44:35.062Z,100705.44
2023-03-11T21:47:01.951Z,100704.56
2023-03-11T21:49:28.915Z,100702.81
2023-03-11T21:51:55.617Z,100695.81
2023-03-11T21:54:22.399Z,100696.69
2023-03-11T21:56:49.079Z,100691.41
2023-03-11T21:59:15.813Z,100687.91
2023-03-11T22:01:42.642Z,100693.19
2023-03-11T22:04:09.782Z,100692.31
2023-03-11T22:06:36.536Z,100688.81
2023-03-11T22:09:03.763Z,100700.19
2023-03-11T22:11:30.496Z,100691.41
2023-03-11T22:13:59.263Z,100692.31
2023-03-11T22:16:26.251Z,100690.56
2023-03-11T22:18:53.610Z,100682.69
2023-03-11T22:21:23.353Z,100692.28
2023-03-11T22:23:50.257Z,100697.56
2023-03-11T22:26:16.815Z,100682.66
2023-03-11T22:28:43.541Z,100683.53
2023-03-11T22:31:12.163Z,100689.69
2023-03-11T22:33:39.834Z,100697.56
2023-03-11T22:36:07.849Z,100696.69
2023-03-11T22:38:34.688Z,100696.72
2023-03-11T22:41:04.558Z,100695.78
2023-03-11T22:43:31.128Z,100701.06
2023-03-11T22:45:57.712Z,100704.56
2023-03-11T22:48:24.338Z,100699.31
2023-03-11T22:50:51.030Z,100694.94
2023-03-11T22:53:17.588Z,100687.91
2023-03-11T22:55:44.668Z,100703.69
2023-03-11T22:58:11.682Z,100704.59
2023-03-11T23:00:38.768Z,100701.97
2023-03-11T23:03:05.654Z,100708.06
2023-03-11T23:05:32.264Z,100699.31
2023-03-11T23:07:58.863Z,100710.69
2023-03-11T23:10:25.410Z,100696.66
2023-03-11T23:12:51.969Z,100694.94
2023-03-11T23:15:19.113Z,100706.31
2023-03-11T23:17:45.686Z,100712.44
2023-03-11T23:20:14.287Z,100708.94
2023-03-11T23:22:42.006Z,100706.31
2023-03-11T23:25:11.872Z,100701.94
2023-03-11T23:27:38.479Z,100701.06
2023-03-11T23:30:05.762Z,100704.56
2023-03-11T23:32:32.321Z,100701.94
2023-03-11T23:34:58.953Z,100705.44
2023-03-11T23:37:25.494Z,100705.44
2023-03-11T23:39:52.042Z,100712.47
2023-03-11T23:42:25.514Z,100711.56
2023-03-11T23:44:52.757Z,100711.56
2023-03-11T23:47:19.445Z,100710.69
2023-03-11T23:49:46.033Z,100720.34
2023-03-11T23:52:12.595Z,100708.97
2023-03-11T23:54:39.178Z,100708.94
2023-03-11T23:57:05.802Z,100715.94
2023-03-11T23:59:32.351Z,100706.31
